createdAt,value
2018-06-20T00:00:05.872Z,34
2018-06-20T00:01:11.389Z,34
2018-06-20T00:02:16.266Z,34
2018-06-20T00:03:21.438Z,34
2018-06-20T00:04:27.539Z,34
2018-06-20T00:05:32.414Z,34
2018-06-20T00:06:37.700Z,34
2018-06-20T00:07:43.145Z,34
2018-06-20T00:08:48.065Z,34
2018-06-20T00:09:53.593Z,34
2018-06-20T00:10:58.738Z,34
2018-06-20T00:12:03.350Z,34
2018-06-20T00:13:08.508Z,34
2018-06-20T00:14:13.960Z,34
2018-06-20T00:15:19.124Z,34
2018-06-20T00:16:24.599Z,34
2018-06-20T00:17:30.024Z,34
2018-06-20T00:18:35.592Z,34
2018-06-20T00:19:40.760Z,34
2018-06-20T00:20:45.944Z,34
2018-06-20T00:21:51.793Z,34
2018-06-20T00:22:56.953Z,34
2018-06-20T00:24:02.408Z,34
2018-06-20T00:25:08.194Z,34
2018-06-20T00:26:13.642Z,34
2018-06-20T00:27:18.240Z,34
2018-06-20T00:28:23.505Z,34
2018-06-20T00:29:28.944Z,34
2018-06-20T00:30:34.945Z,34
2018-06-20T00:31:40.109Z,34
2018-06-20T00:32:45.008Z,34
2018-06-20T00:33:50.253Z,34
2018-06-20T00:34:55.421Z,34
2018-06-20T00:36:00.580Z,34
2018-06-20T00:37:05.556Z,34
2018-06-20T00:38:11.013Z,34
2018-06-20T00:39:16.460Z,34
2018-06-20T00:40:22.155Z,34
2018-06-20T00:41:26.749Z,34
2018-06-20T00:42:32.312Z,34
2018-06-20T00:43:37.754Z,34
2018-06-20T00:44:43.199Z,34
2018-06-20T00:45:48.351Z,34
2018-06-20T00:46:53.214Z,34
2018-06-20T00:47:58.382Z,34
2018-06-20T00:49:03.256Z,34
2018-06-20T00:50:08.130Z,34
2018-06-20T00:51:13.591Z,34
2018-06-20T00:52:19.108Z,34
2018-06-20T00:53:24.281Z,34
2018-06-20T00:54:29.966Z,34
2018-06-20T00:55:35.121Z,34
2018-06-20T00:56:40.566Z,34
2018-06-20T00:57:46.266Z,34
2018-06-20T00:58:50.869Z,34
2018-06-20T00:59:55.480Z,34
2018-06-20T01:01:01.196Z,34
2018-06-20T01:02:06.100Z,34
2018-06-20T01:03:10.440Z,34
2018-06-20T01:04:15.978Z,34
2018-06-20T01:05:20.570Z,34
2018-06-20T01:06:25.864Z,34
2018-06-20T01:07:30.468Z,34
2018-06-20T01:08:35.905Z,34
2018-06-20T01:09:41.848Z,34
2018-06-20T01:10:46.729Z,34
2018-06-20T01:11:52.208Z,34
2018-06-20T01:12:59.044Z,34
2018-06-20T01:14:04.203Z,34
2018-06-20T01:15:08.799Z,34
2018-06-20T01:16:14.519Z,34
2018-06-20T01:17:19.961Z,34
2018-06-20T01:18:40.446Z,34
2018-06-20T01:19:45.885Z,34
2018-06-20T01:20:50.776Z,34
2018-06-20T01:21:55.611Z,34
2018-06-20T01:23:00.803Z,34
2018-06-20T01:24:05.405Z,34
2018-06-20T01:25:10.815Z,34
2018-06-20T01:26:16.266Z,34
2018-06-20T01:27:21.703Z,34
2018-06-20T01:28:28.061Z,34
2018-06-20T01:29:33.494Z,34
2018-06-20T01:30:38.648Z,34
2018-06-20T01:31:44.099Z,34
2018-06-20T01:32:49.269Z,34
2018-06-20T01:33:54.964Z,34
2018-06-20T01:34:59.838Z,34
2018-06-20T01:36:04.714Z,34
2018-06-20T01:37:09.655Z,34
2018-06-20T01:38:14.813Z,34
2018-06-20T01:39:19.974Z,34
2018-06-20T01:40:25.205Z,34
2018-06-20T01:41:30.366Z,34
2018-06-20T01:42:35.504Z,34
2018-06-20T01:43:40.972Z,34
2018-06-20T01:44:46.434Z,34
2018-06-20T01:45:51.934Z,34
2018-06-20T01:46:57.111Z,34
2018-06-20T01:48:01.988Z,34
2018-06-20T01:49:07.405Z,34
2018-06-20T01:50:12.306Z,34
2018-06-20T01:51:17.465Z,34
2018-06-20T01:52:23.278Z,34
2018-06-20T01:53:28.186Z,34
2018-06-20T01:54:34.145Z,34
2018-06-20T01:55:39.080Z,34
2018-06-20T01:56:44.346Z,34
2018-06-20T01:57:49.770Z,34
2018-06-20T01:58:55.211Z,34
2018-06-20T02:00:00.657Z,34
2018-06-20T02:01:06.152Z,34
2018-06-20T02:02:11.318Z,34
2018-06-20T02:03:16.488Z,34
2018-06-20T02:04:21.707Z,34
2018-06-20T02:05:26.910Z,34
2018-06-20T02:06:32.898Z,34
2018-06-20T02:07:38.362Z,34
2018-06-20T02:08:43.540Z,34
2018-06-20T02:09:49.107Z,34
2018-06-20T02:10:54.555Z,34
2018-06-20T02:11:59.989Z,34
2018-06-20T02:13:05.405Z,34
2018-06-20T02:14:09.736Z,34
2018-06-20T02:15:14.919Z,34
2018-06-20T02:16:20.439Z,34
2018-06-20T02:17:25.359Z,34
2018-06-20T02:18:30.946Z,34
2018-06-20T02:19:35.828Z,34
2018-06-20T02:20:41.270Z,33
2018-06-20T02:21:46.707Z,33
2018-06-20T02:22:51.876Z,33
2018-06-20T02:23:57.327Z,33
2018-06-20T02:25:03.145Z,33
2018-06-20T02:26:08.041Z,33
2018-06-20T02:27:13.219Z,33
2018-06-20T02:28:18.636Z,33
2018-06-20T02:29:23.832Z,33
2018-06-20T02:30:28.804Z,33
2018-06-20T02:31:33.972Z,33
2018-06-20T02:32:39.141Z,33
2018-06-20T02:33:44.123Z,33
2018-06-20T02:34:49.300Z,33
2018-06-20T02:35:54.172Z,33
2018-06-20T02:36:59.974Z,33
2018-06-20T02:38:04.872Z,33
2018-06-20T02:39:10.043Z,33
2018-06-20T02:40:15.562Z,33
2018-06-20T02:41:20.725Z,33
2018-06-20T02:42:26.344Z,33
2018-06-20T02:43:31.784Z,33
2018-06-20T02:44:37.224Z,33
2018-06-20T02:45:43.067Z,33
2018-06-20T02:46:47.629Z,33
2018-06-20T02:47:52.791Z,33
2018-06-20T02:48:58.482Z,33
2018-06-20T02:50:03.923Z,33
2018-06-20T02:51:09.095Z,33
2018-06-20T02:52:13.979Z,33
2018-06-20T02:53:19.164Z,33
2018-06-20T02:55:44.689Z,33
2018-06-20T02:56:50.153Z,33
2018-06-20T02:57:55.581Z,33
2018-06-20T02:59:01.030Z,33
2018-06-20T03:00:05.913Z,33
2018-06-20T03:01:11.335Z,33
2018-06-20T03:02:16.217Z,33
2018-06-20T03:03:21.400Z,33
2018-06-20T03:04:26.657Z,33
2018-06-20T03:05:31.543Z,33
2018-06-20T03:06:36.832Z,33
2018-06-20T03:07:41.989Z,33
2018-06-20T03:08:47.440Z,34
2018-06-20T03:09:52.850Z,34
2018-06-20T03:10:58.024Z,34
2018-06-20T03:12:02.945Z,34
2018-06-20T03:13:08.391Z,35
2018-06-20T03:14:13.836Z,35
2018-06-20T03:15:19.019Z,35
2018-06-20T03:16:24.714Z,35
2018-06-20T03:17:29.590Z,35
2018-06-20T03:18:35.093Z,36
2018-06-20T03:19:40.536Z,36
2018-06-20T03:20:45.977Z,36
2018-06-20T03:21:51.546Z,36
2018-06-20T03:22:56.995Z,36
2018-06-20T03:24:02.151Z,36
2018-06-20T03:25:07.380Z,36
2018-06-20T03:26:12.274Z,36
2018-06-20T03:27:17.177Z,36
2018-06-20T03:28:22.614Z,36
2018-06-20T03:29:27.498Z,37
2018-06-20T03:30:33.337Z,36
2018-06-20T03:31:38.780Z,36
2018-06-20T03:32:44.219Z,37
2018-06-20T03:33:49.358Z,37
2018-06-20T03:34:54.238Z,37
2018-06-20T03:35:59.693Z,37
2018-06-20T03:37:05.406Z,37
2018-06-20T03:38:10.301Z,37
2018-06-20T03:39:15.738Z,37
2018-06-20T03:40:21.154Z,37
2018-06-20T03:41:26.321Z,37
2018-06-20T03:42:31.745Z,37
2018-06-20T03:43:36.911Z,37
2018-06-20T03:44:42.063Z,37
2018-06-20T03:45:47.480Z,37
2018-06-20T03:46:52.919Z,37
2018-06-20T03:47:58.368Z,37
2018-06-20T03:49:03.495Z,37
2018-06-20T03:50:08.935Z,37
2018-06-20T03:51:13.822Z,37
2018-06-20T03:52:19.659Z,37
2018-06-20T03:53:25.114Z,37
2018-06-20T03:54:30.906Z,37
2018-06-20T03:55:35.769Z,37
2018-06-20T03:56:40.678Z,37
2018-06-20T03:57:46.100Z,37
2018-06-20T03:58:50.701Z,38
2018-06-20T03:59:56.144Z,37
2018-06-20T04:01:01.844Z,38
2018-06-20T04:02:06.455Z,38
2018-06-20T04:03:11.656Z,38
2018-06-20T04:04:16.807Z,38
2018-06-20T04:05:21.972Z,38
2018-06-20T04:06:28.013Z,38
2018-06-20T04:07:33.246Z,38
2018-06-20T04:08:38.408Z,38
2018-06-20T04:09:43.942Z,38
2018-06-20T04:10:49.393Z,38
2018-06-20T04:11:54.837Z,38
2018-06-20T04:13:00.625Z,38
2018-06-20T04:14:05.783Z,38
2018-06-20T04:15:10.391Z,38
2018-06-20T04:16:15.797Z,38
2018-06-20T04:17:21.259Z,38
2018-06-20T04:18:26.820Z,38
2018-06-20T04:19:32.282Z,38
2018-06-20T04:20:37.448Z,38
2018-06-20T04:21:42.855Z,38
2018-06-20T04:22:48.051Z,38
2018-06-20T04:23:53.511Z,38
2018-06-20T04:24:58.722Z,38
2018-06-20T04:26:03.893Z,38
2018-06-20T04:27:08.782Z,38
2018-06-20T04:28:14.661Z,38
2018-06-20T04:29:20.112Z,38
2018-06-20T04:30:25.789Z,38
2018-06-20T04:31:31.599Z,38
2018-06-20T04:32:37.062Z,38
2018-06-20T04:33:42.481Z,38
2018-06-20T04:34:47.839Z,39
2018-06-20T04:35:53.558Z,39
2018-06-20T04:36:59.107Z,39
2018-06-20T04:38:04.557Z,39
2018-06-20T04:39:10.008Z,39
2018-06-20T04:40:15.466Z,38
2018-06-20T04:41:20.353Z,39
2018-06-20T04:42:25.877Z,39
2018-06-20T04:43:30.747Z,39
2018-06-20T04:44:36.229Z,39
2018-06-20T04:45:41.541Z,39
2018-06-20T04:46:46.718Z,39
2018-06-20T04:47:51.889Z,39
2018-06-20T04:48:57.343Z,39
2018-06-20T04:50:02.517Z,39
2018-06-20T04:51:07.965Z,39
2018-06-20T04:52:13.426Z,39
2018-06-20T04:53:18.295Z,39
2018-06-20T04:54:23.474Z,39
2018-06-20T04:55:43.546Z,39
2018-06-20T04:56:48.697Z,39
2018-06-20T04:57:53.990Z,39
2018-06-20T04:58:59.435Z,39
2018-06-20T05:00:04.600Z,39
2018-06-20T05:01:10.024Z,39
2018-06-20T05:02:15.466Z,39
2018-06-20T05:03:20.645Z,39
2018-06-20T05:04:40.704Z,39
2018-06-20T05:05:45.856Z,39
2018-06-20T05:06:51.553Z,39
2018-06-20T05:07:57.007Z,39
2018-06-20T05:09:02.493Z,40
2018-06-20T05:10:07.730Z,39
2018-06-20T05:11:13.163Z,39
2018-06-20T05:12:18.599Z,39
2018-06-20T05:13:24.019Z,39
2018-06-20T05:14:29.191Z,40
2018-06-20T05:15:34.327Z,39
2018-06-20T05:16:39.771Z,39
2018-06-20T05:17:44.925Z,39
2018-06-20T05:18:50.714Z,39
2018-06-20T05:19:56.388Z,40
2018-06-20T05:21:01.824Z,40
2018-06-20T05:22:06.112Z,40
2018-06-20T05:23:11.478Z,40
2018-06-20T05:24:16.367Z,40
2018-06-20T05:25:21.793Z,40
2018-06-20T05:26:26.943Z,40
2018-06-20T05:27:32.901Z,40
2018-06-20T05:28:37.787Z,40
2018-06-20T05:29:42.956Z,40
2018-06-20T05:30:48.454Z,40
2018-06-20T05:31:53.898Z,40
2018-06-20T05:32:59.076Z,40
2018-06-20T05:34:04.740Z,40
2018-06-20T05:35:09.896Z,40
2018-06-20T05:36:14.772Z,40
2018-06-20T05:37:20.614Z,40
2018-06-20T05:38:25.502Z,40
2018-06-20T05:39:31.048Z,40
2018-06-20T05:40:36.492Z,40
2018-06-20T05:41:41.447Z,40
2018-06-20T05:42:46.826Z,40
2018-06-20T05:43:52.301Z,40
2018-06-20T05:44:56.900Z,40
2018-06-20T05:46:02.328Z,40
2018-06-20T05:47:06.379Z,40
2018-06-20T05:48:11.550Z,40
2018-06-20T05:49:17.393Z,40
2018-06-20T05:50:22.844Z,40
2018-06-20T05:51:28.561Z,40
2018-06-20T05:52:33.744Z,40
2018-06-20T05:53:38.085Z,40
2018-06-20T05:54:43.479Z,40
2018-06-20T05:55:48.347Z,40
2018-06-20T05:56:53.812Z,40
2018-06-20T05:57:59.632Z,40
2018-06-20T05:59:04.495Z,40
2018-06-20T06:00:09.657Z,40
2018-06-20T06:01:15.459Z,40
2018-06-20T06:02:20.928Z,40
2018-06-20T06:03:26.488Z,40
2018-06-20T06:04:31.647Z,40
2018-06-20T06:05:36.273Z,40
2018-06-20T06:06:41.413Z,40
2018-06-20T06:07:46.886Z,40
2018-06-20T06:08:52.365Z,40
2018-06-20T06:09:57.618Z,40
2018-06-20T06:11:02.212Z,40
2018-06-20T06:12:06.578Z,40
2018-06-20T06:13:12.291Z,40
2018-06-20T06:14:17.238Z,40
2018-06-20T06:15:22.893Z,40
2018-06-20T06:16:28.375Z,40
2018-06-20T06:17:33.821Z,40
2018-06-20T06:18:38.665Z,40
2018-06-20T06:19:44.112Z,40
2018-06-20T06:20:49.271Z,40
2018-06-20T06:21:54.411Z,40
2018-06-20T06:22:59.853Z,40
2018-06-20T06:24:05.019Z,40
2018-06-20T06:25:10.743Z,40
2018-06-20T06:26:15.879Z,40
2018-06-20T06:27:21.323Z,40
2018-06-20T06:28:26.989Z,40
2018-06-20T06:29:31.852Z,40
2018-06-20T06:30:37.630Z,40
2018-06-20T06:31:43.187Z,40
2018-06-20T06:32:48.324Z,40
2018-06-20T06:33:54.125Z,40
2018-06-20T06:34:59.581Z,40
2018-06-20T06:36:05.039Z,40
2018-06-20T06:37:09.987Z,41
2018-06-20T06:38:15.159Z,40
2018-06-20T06:39:20.029Z,40
2018-06-20T06:40:25.178Z,40
2018-06-20T06:41:30.076Z,40
2018-06-20T06:42:35.008Z,40
2018-06-20T06:43:40.163Z,40
2018-06-20T06:44:45.357Z,40
2018-06-20T06:45:50.215Z,40
2018-06-20T06:46:55.663Z,40
2018-06-20T06:48:01.119Z,40
2018-06-20T06:49:06.805Z,40
2018-06-20T06:50:12.423Z,40
2018-06-20T06:51:17.309Z,41
2018-06-20T06:52:23.004Z,40
2018-06-20T06:53:28.177Z,40
2018-06-20T06:54:33.470Z,40
2018-06-20T06:55:38.358Z,40
2018-06-20T06:56:43.259Z,40
2018-06-20T06:57:49.052Z,41
2018-06-20T06:58:54.622Z,40
2018-06-20T07:00:00.072Z,40
2018-06-20T07:01:04.795Z,40
2018-06-20T07:02:09.390Z,40
2018-06-20T07:03:14.284Z,40
2018-06-20T07:04:19.530Z,40
2018-06-20T07:05:24.679Z,40
2018-06-20T07:06:30.266Z,40
2018-06-20T07:07:35.179Z,40
2018-06-20T07:08:40.090Z,40
2018-06-20T07:09:45.784Z,40
2018-06-20T07:10:51.553Z,40
2018-06-20T07:11:56.996Z,40
2018-06-20T07:13:02.441Z,40
2018-06-20T07:14:07.611Z,40
2018-06-20T07:15:12.949Z,40
2018-06-20T07:16:18.527Z,40
2018-06-20T07:17:23.408Z,40
2018-06-20T07:18:28.695Z,40
2018-06-20T07:19:34.161Z,40
2018-06-20T07:20:39.024Z,40
2018-06-20T07:21:44.162Z,40
2018-06-20T07:22:49.325Z,40
2018-06-20T07:23:54.784Z,40
2018-06-20T07:25:00.242Z,40
2018-06-20T07:26:05.413Z,40
2018-06-20T07:27:10.013Z,40
2018-06-20T07:28:15.843Z,40
2018-06-20T07:29:21.094Z,40
2018-06-20T07:30:26.526Z,40
2018-06-20T07:31:32.141Z,40
2018-06-20T07:32:37.299Z,40
2018-06-20T07:33:42.718Z,40
2018-06-20T07:34:47.306Z,40
2018-06-20T07:35:53.101Z,40
2018-06-20T07:36:59.687Z,40
2018-06-20T07:38:05.132Z,40
2018-06-20T07:39:10.588Z,40
2018-06-20T07:40:15.917Z,40
2018-06-20T07:41:20.789Z,40
2018-06-20T07:42:26.296Z,40
2018-06-20T07:43:31.493Z,40
2018-06-20T07:44:36.097Z,40
2018-06-20T07:45:41.905Z,40
2018-06-20T07:46:47.344Z,40
2018-06-20T07:47:52.630Z,40
2018-06-20T07:48:57.864Z,40
2018-06-20T07:50:03.315Z,40
2018-06-20T07:51:08.425Z,40
2018-06-20T07:52:14.118Z,39
2018-06-20T07:53:19.305Z,40
2018-06-20T07:54:25.149Z,39
2018-06-20T07:55:30.051Z,39
2018-06-20T07:56:34.941Z,39
2018-06-20T07:57:40.734Z,39
2018-06-20T07:58:45.602Z,39
2018-06-20T07:59:50.468Z,39
2018-06-20T08:00:56.453Z,39
2018-06-20T08:02:01.918Z,39
2018-06-20T08:03:06.808Z,39
2018-06-20T08:04:12.166Z,39
2018-06-20T08:05:17.333Z,39
2018-06-20T08:06:22.404Z,39
2018-06-20T08:07:28.651Z,39
2018-06-20T08:08:34.101Z,39
2018-06-20T08:09:39.892Z,39
2018-06-20T08:10:45.085Z,39
2018-06-20T08:11:50.441Z,39
2018-06-20T08:12:55.729Z,39
2018-06-20T08:14:00.898Z,39
2018-06-20T08:15:05.511Z,39
2018-06-20T08:16:10.940Z,39
2018-06-20T08:17:15.832Z,39
2018-06-20T08:18:21.338Z,39
2018-06-20T08:19:26.691Z,39
2018-06-20T08:20:31.855Z,39
2018-06-20T08:21:37.098Z,39
2018-06-20T08:22:41.697Z,39
2018-06-20T08:23:47.133Z,39
2018-06-20T08:24:52.259Z,39
2018-06-20T08:25:57.424Z,39
2018-06-20T08:27:02.038Z,39
2018-06-20T08:28:07.915Z,39
2018-06-20T08:29:13.081Z,39
2018-06-20T08:30:18.451Z,39
2018-06-20T08:31:24.158Z,39
2018-06-20T08:32:29.065Z,39
2018-06-20T08:33:34.211Z,39
2018-06-20T08:34:39.376Z,39
2018-06-20T08:35:44.820Z,39
2018-06-20T08:36:50.531Z,39
2018-06-20T08:37:55.701Z,39
2018-06-20T08:39:00.321Z,39
2018-06-20T08:40:05.368Z,39
2018-06-20T08:41:10.528Z,39
2018-06-20T08:42:15.689Z,39
2018-06-20T08:43:21.305Z,39
2018-06-20T08:44:26.754Z,39
2018-06-20T08:45:32.534Z,39
2018-06-20T08:46:37.398Z,39
2018-06-20T08:47:42.553Z,39
2018-06-20T08:48:47.890Z,39
2018-06-20T08:49:52.493Z,39
2018-06-20T08:50:57.660Z,39
2018-06-20T08:52:03.135Z,39
2018-06-20T08:53:07.765Z,38
2018-06-20T08:54:13.080Z,39
2018-06-20T08:55:18.802Z,39
2018-06-20T08:56:23.695Z,39
2018-06-20T08:57:29.393Z,38
2018-06-20T08:58:34.854Z,38
2018-06-20T08:59:39.748Z,38
2018-06-20T09:00:45.458Z,38
2018-06-20T09:01:49.776Z,38
2018-06-20T09:02:55.425Z,38
2018-06-20T09:04:01.165Z,38
2018-06-20T09:05:06.320Z,38
2018-06-20T09:06:11.477Z,38
2018-06-20T09:07:17.307Z,38
2018-06-20T09:08:22.766Z,38
2018-06-20T09:09:28.286Z,38
2018-06-20T09:10:33.469Z,38
2018-06-20T09:11:38.395Z,38
2018-06-20T09:12:43.620Z,38
2018-06-20T09:13:48.778Z,38
2018-06-20T09:14:54.265Z,38
2018-06-20T09:15:59.502Z,38
2018-06-20T09:17:04.686Z,38
2018-06-20T09:18:09.615Z,38
2018-06-20T09:19:14.880Z,38
2018-06-20T09:20:19.816Z,38
2018-06-20T09:21:25.449Z,38
2018-06-20T09:22:30.907Z,38
2018-06-20T09:23:36.086Z,38
2018-06-20T09:24:41.390Z,38
2018-06-20T09:25:46.551Z,38
2018-06-20T09:26:52.242Z,38
2018-06-20T09:27:57.797Z,38
2018-06-20T09:29:02.668Z,38
2018-06-20T09:30:07.981Z,38
2018-06-20T09:31:14.187Z,38
2018-06-20T09:32:19.837Z,38
2018-06-20T09:34:45.088Z,37
2018-06-20T09:35:50.262Z,37
2018-06-20T09:36:55.503Z,37
2018-06-20T09:38:00.946Z,37
2018-06-20T09:39:06.114Z,37
2018-06-20T09:40:11.533Z,38
2018-06-20T09:41:16.436Z,37
2018-06-20T09:42:21.687Z,37
2018-06-20T09:43:27.100Z,38
2018-06-20T09:44:32.611Z,37
2018-06-20T09:45:38.211Z,37
2018-06-20T09:46:43.696Z,37
2018-06-20T09:47:49.167Z,37
2018-06-20T09:48:54.869Z,37
2018-06-20T09:50:00.308Z,37
2018-06-20T09:51:04.913Z,37
2018-06-20T09:52:10.353Z,37
2018-06-20T09:53:15.993Z,37
2018-06-20T09:54:21.113Z,37
2018-06-20T09:55:26.725Z,37
2018-06-20T09:56:31.935Z,37
2018-06-20T09:57:37.720Z,37
2018-06-20T09:58:43.520Z,37
2018-06-20T09:59:48.689Z,37
2018-06-20T10:00:54.132Z,37
2018-06-20T10:01:59.015Z,37
2018-06-20T10:03:03.896Z,37
2018-06-20T10:04:09.558Z,37
2018-06-20T10:05:14.463Z,37
2018-06-20T10:06:19.702Z,37
2018-06-20T10:07:25.205Z,37
2018-06-20T10:08:30.367Z,37
2018-06-20T10:09:35.773Z,37
2018-06-20T10:10:40.941Z,37
2018-06-20T10:11:46.108Z,37
2018-06-20T10:12:51.801Z,37
2018-06-20T10:13:56.679Z,37
2018-06-20T10:15:01.851Z,37
2018-06-20T10:16:07.086Z,37
2018-06-20T10:17:11.687Z,37
2018-06-20T10:18:17.290Z,37
2018-06-20T10:19:23.018Z,37
2018-06-20T10:20:28.171Z,37
2018-06-20T10:21:33.932Z,37
2018-06-20T10:22:38.821Z,37
2018-06-20T10:23:43.409Z,37
2018-06-20T10:24:49.106Z,37
2018-06-20T10:25:54.571Z,37
2018-06-20T10:26:59.721Z,37
2018-06-20T10:28:05.137Z,37
2018-06-20T10:29:10.585Z,37
2018-06-20T10:30:15.456Z,37
2018-06-20T10:31:20.950Z,37
2018-06-20T10:32:26.381Z,37
2018-06-20T10:33:32.186Z,37
2018-06-20T10:34:37.630Z,37
2018-06-20T10:35:43.077Z,37
2018-06-20T10:36:48.978Z,37
2018-06-20T10:37:53.854Z,37
2018-06-20T10:38:59.015Z,37
2018-06-20T10:40:04.626Z,37
2018-06-20T10:41:10.226Z,37
2018-06-20T10:42:15.413Z,37
2018-06-20T10:43:21.004Z,37
2018-06-20T10:44:26.373Z,37
2018-06-20T10:45:31.626Z,37
2018-06-20T10:46:36.805Z,37
2018-06-20T10:47:41.711Z,37
2018-06-20T10:48:46.849Z,37
2018-06-20T10:49:52.293Z,37
2018-06-20T10:50:58.066Z,37
2018-06-20T10:52:03.928Z,37
2018-06-20T10:53:08.827Z,37
2018-06-20T10:54:14.317Z,37
2018-06-20T10:55:19.925Z,37
2018-06-20T10:56:25.372Z,37
2018-06-20T10:57:30.901Z,37
2018-06-20T10:58:36.059Z,37
2018-06-20T10:59:41.228Z,37
2018-06-20T11:00:46.839Z,37
2018-06-20T11:01:52.275Z,37
2018-06-20T11:02:57.731Z,37
2018-06-20T11:04:02.680Z,36
2018-06-20T11:05:07.572Z,36
2018-06-20T11:06:13.222Z,37
2018-06-20T11:07:18.373Z,37
2018-06-20T11:08:23.541Z,37
2018-06-20T11:09:29.050Z,37
2018-06-20T11:10:34.302Z,37
2018-06-20T11:11:38.904Z,36
2018-06-20T11:12:44.140Z,36
2018-06-20T11:13:49.374Z,36
2018-06-20T11:14:55.081Z,36
2018-06-20T11:16:00.211Z,36
2018-06-20T11:17:05.112Z,36
2018-06-20T11:18:10.563Z,36
2018-06-20T11:19:16.013Z,36
2018-06-20T11:20:21.217Z,36
2018-06-20T11:21:27.065Z,36
2018-06-20T11:22:32.516Z,36
2018-06-20T11:23:37.981Z,36
2018-06-20T11:24:43.496Z,36
2018-06-20T11:25:48.956Z,36
2018-06-20T11:26:54.370Z,36
2018-06-20T11:28:00.065Z,36
2018-06-20T11:29:05.321Z,36
2018-06-20T11:30:11.290Z,36
2018-06-20T11:31:16.710Z,36
2018-06-20T11:32:22.165Z,36
2018-06-20T11:33:27.821Z,36
2018-06-20T11:34:33.471Z,36
2018-06-20T11:35:38.628Z,36
2018-06-20T11:36:43.915Z,36
2018-06-20T11:37:48.828Z,36
2018-06-20T11:38:54.025Z,36
2018-06-20T11:39:59.212Z,36
2018-06-20T11:41:04.098Z,36
2018-06-20T11:42:08.970Z,37
2018-06-20T11:43:14.651Z,37
2018-06-20T11:44:20.123Z,37
2018-06-20T11:45:26.130Z,37
2018-06-20T11:46:31.244Z,37
2018-06-20T11:47:36.427Z,37
2018-06-20T11:48:41.598Z,37
2018-06-20T11:49:46.749Z,37
2018-06-20T11:50:51.699Z,37
2018-06-20T11:51:57.430Z,37
2018-06-20T11:53:02.628Z,37
2018-06-20T11:54:07.227Z,37
2018-06-20T11:55:12.744Z,37
2018-06-20T11:56:18.091Z,37
2018-06-20T11:57:23.248Z,37
2018-06-20T11:58:28.856Z,37
2018-06-20T11:59:33.734Z,37
2018-06-20T12:00:39.180Z,37
2018-06-20T12:01:44.050Z,37
2018-06-20T12:02:49.253Z,37
2018-06-20T12:03:54.962Z,37
2018-06-20T12:05:01.123Z,37
2018-06-20T12:06:05.455Z,37
2018-06-20T12:07:10.875Z,37
2018-06-20T12:08:16.491Z,37
2018-06-20T12:09:21.652Z,37
2018-06-20T12:10:27.813Z,37
2018-06-20T12:11:33.198Z,37
2018-06-20T12:12:38.315Z,37
2018-06-20T12:13:43.477Z,37
2018-06-20T12:14:48.928Z,37
2018-06-20T12:15:54.624Z,37
2018-06-20T12:17:00.224Z,37
2018-06-20T12:18:04.827Z,37
2018-06-20T12:19:09.850Z,37
2018-06-20T12:20:14.724Z,37
2018-06-20T12:21:20.213Z,37
2018-06-20T12:22:25.244Z,37
2018-06-20T12:23:29.843Z,36
2018-06-20T12:24:35.279Z,37
2018-06-20T12:25:40.153Z,37
2018-06-20T12:26:45.638Z,36
2018-06-20T12:27:50.483Z,36
2018-06-20T12:28:55.649Z,36
2018-06-20T12:30:00.817Z,36
2018-06-20T12:31:06.239Z,36
2018-06-20T12:32:11.702Z,36
2018-06-20T12:33:17.552Z,36
2018-06-20T12:34:22.874Z,36
2018-06-20T12:35:28.251Z,36
2018-06-20T12:36:33.954Z,36
2018-06-20T12:37:38.352Z,36
2018-06-20T12:38:43.784Z,36
2018-06-20T12:39:48.915Z,36
2018-06-20T12:40:54.262Z,36
2018-06-20T12:42:00.057Z,36
2018-06-20T12:43:05.505Z,36
2018-06-20T12:44:10.380Z,36
2018-06-20T12:45:15.274Z,36
2018-06-20T12:46:20.824Z,36
2018-06-20T12:47:25.706Z,36
2018-06-20T12:48:31.403Z,36
2018-06-20T12:49:36.765Z,36
2018-06-20T12:50:41.934Z,36
2018-06-20T12:51:47.738Z,36
2018-06-20T12:52:53.143Z,36
2018-06-20T12:53:58.587Z,36
2018-06-20T12:55:03.872Z,36
2018-06-20T12:56:09.051Z,36
2018-06-20T12:57:14.231Z,36
2018-06-20T12:58:19.743Z,36
2018-06-20T12:59:25.436Z,36
2018-06-20T13:00:30.344Z,36
2018-06-20T13:01:35.545Z,36
2018-06-20T13:02:40.719Z,36
2018-06-20T13:03:45.976Z,36
2018-06-20T13:04:51.156Z,36
2018-06-20T13:05:56.588Z,36
2018-06-20T13:07:01.168Z,36
2018-06-20T13:08:05.511Z,36
2018-06-20T13:09:10.597Z,36
2018-06-20T13:10:16.105Z,36
2018-06-20T13:11:21.280Z,36
2018-06-20T13:12:26.991Z,36
2018-06-20T13:13:31.868Z,36
2018-06-20T13:14:38.144Z,36
2018-06-20T13:15:43.848Z,36
2018-06-20T13:16:49.166Z,36
2018-06-20T13:17:54.355Z,36
2018-06-20T13:18:59.653Z,36
2018-06-20T13:20:05.600Z,36
2018-06-20T13:21:10.242Z,35
2018-06-20T13:22:16.235Z,35
2018-06-20T13:23:21.597Z,35
2018-06-20T13:24:27.123Z,35
2018-06-20T13:25:32.294Z,35
2018-06-20T13:26:37.733Z,35
2018-06-20T13:27:43.261Z,35
2018-06-20T13:28:48.921Z,35
2018-06-20T13:29:54.336Z,35
2018-06-20T13:30:59.175Z,35
2018-06-20T13:32:04.248Z,35
2018-06-20T13:33:09.628Z,35
2018-06-20T13:34:15.047Z,35
2018-06-20T13:35:20.486Z,35
2018-06-20T13:36:26.893Z,35
2018-06-20T13:37:32.053Z,35
2018-06-20T13:38:36.944Z,35
2018-06-20T13:39:43.077Z,35
2018-06-20T13:40:49.401Z,35
2018-06-20T13:41:55.063Z,35
2018-06-20T13:43:00.508Z,35
2018-06-20T13:44:05.398Z,35
2018-06-20T13:45:10.968Z,35
2018-06-20T13:46:16.775Z,35
2018-06-20T13:47:22.230Z,35
2018-06-20T13:48:27.982Z,35
2018-06-20T13:49:33.148Z,35
2018-06-20T13:50:38.587Z,35
2018-06-20T13:51:44.221Z,35
2018-06-20T13:52:49.663Z,35
2018-06-20T13:53:55.320Z,35
2018-06-20T13:55:01.197Z,35
2018-06-20T13:56:06.153Z,35
2018-06-20T13:57:11.755Z,35
2018-06-20T13:58:16.891Z,35
2018-06-20T13:59:22.260Z,35
2018-06-20T14:00:28.236Z,35
2018-06-20T14:01:33.421Z,35
2018-06-20T14:02:38.883Z,35
2018-06-20T14:03:44.592Z,35
2018-06-20T14:04:49.746Z,35
2018-06-20T14:05:54.638Z,35
2018-06-20T14:06:59.872Z,35
2018-06-20T14:08:04.389Z,35
2018-06-20T14:09:09.560Z,35
2018-06-20T14:10:15.289Z,35
2018-06-20T14:11:19.916Z,35
2018-06-20T14:12:25.918Z,35
2018-06-20T14:13:31.084Z,35
2018-06-20T14:14:35.981Z,35
2018-06-20T14:15:40.969Z,35
2018-06-20T14:16:46.307Z,35
2018-06-20T14:17:52.148Z,35
2018-06-20T14:18:57.948Z,35
2018-06-20T14:20:02.547Z,35
2018-06-20T14:21:07.857Z,35
2018-06-20T14:22:13.173Z,35
2018-06-20T14:23:18.614Z,35
2018-06-20T14:24:24.064Z,35
2018-06-20T14:25:43.864Z,35
2018-06-20T14:26:49.090Z,35
2018-06-20T14:27:54.060Z,35
2018-06-20T14:28:59.212Z,35
2018-06-20T14:30:04.375Z,35
2018-06-20T14:31:10.276Z,35
2018-06-20T14:32:15.143Z,35
2018-06-20T14:33:20.320Z,35
2018-06-20T14:34:40.435Z,35
2018-06-20T14:35:45.455Z,35
2018-06-20T14:36:51.157Z,35
2018-06-20T14:37:56.615Z,35
2018-06-20T14:39:01.779Z,35
2018-06-20T14:40:06.372Z,35
2018-06-20T14:41:11.881Z,35
2018-06-20T14:42:17.034Z,35
2018-06-20T14:43:22.390Z,35
2018-06-20T14:44:27.849Z,34
2018-06-20T14:45:33.248Z,34
2018-06-20T14:46:38.415Z,34
2018-06-20T14:47:43.569Z,35
2018-06-20T14:48:48.627Z,35
2018-06-20T14:49:54.076Z,35
2018-06-20T14:50:59.514Z,34
2018-06-20T14:52:04.825Z,34
2018-06-20T14:53:09.987Z,34
2018-06-20T14:54:14.861Z,34
2018-06-20T14:55:20.342Z,34
2018-06-20T14:56:26.019Z,34
2018-06-20T14:57:31.408Z,34
2018-06-20T14:58:36.869Z,34
2018-06-20T14:59:42.031Z,34
2018-06-20T15:00:47.637Z,34
2018-06-20T15:01:53.145Z,34
2018-06-20T15:02:58.601Z,34
2018-06-20T15:04:04.039Z,34
2018-06-20T15:05:09.214Z,34
2018-06-20T15:06:14.637Z,34
2018-06-20T15:07:19.778Z,34
2018-06-20T15:08:24.689Z,34
2018-06-20T15:09:30.116Z,34
2018-06-20T15:10:35.288Z,34
2018-06-20T15:11:40.168Z,34
2018-06-20T15:12:45.985Z,34
2018-06-20T15:13:50.886Z,34
2018-06-20T15:14:55.777Z,34
2018-06-20T15:16:01.448Z,34
2018-06-20T15:17:06.052Z,34
2018-06-20T15:18:11.525Z,34
2018-06-20T15:19:16.925Z,34
2018-06-20T15:20:22.102Z,34
2018-06-20T15:21:27.942Z,34
2018-06-20T15:22:33.555Z,34
2018-06-20T15:23:38.749Z,34
2018-06-20T15:24:43.869Z,34
2018-06-20T15:25:49.332Z,34
2018-06-20T15:26:55.132Z,34
2018-06-20T15:28:00.579Z,34
2018-06-20T15:29:06.133Z,34
2018-06-20T15:30:10.948Z,34
2018-06-20T15:31:16.805Z,34
2018-06-20T15:32:21.971Z,34
2018-06-20T15:33:27.473Z,34
2018-06-20T15:34:32.641Z,34